sensor_id;sensor_type;location;lat;lon;timestamp;pressure;altitude;pressure_sealevel;temperature;humidity
63194;BME280;49289;51.670;5.624;2022-07-29T00:00:25;101803.30;;;24.33;40.14
63194;BME280;49289;51.670;5.624;2022-07-29T00:02:12;101791.47;;;24.40;40.14
63194;BME280;49289;51.670;5.624;2022-07-29T00:03:59;101788.12;;;24.33;39.92
63194;BME280;49289;51.670;5.624;2022-07-29T00:05:46;101783.73;;;24.24;40.47
63194;BME280;49289;51.670;5.624;2022-07-29T00:07:34;101799.61;;;24.53;40.14
63194;BME280;49289;51.670;5.624;2022-07-29T00:09:22;101781.72;;;24.24;40.37
63194;BME280;49289;51.670;5.624;2022-07-29T00:11:10;101794.95;;;24.19;40.54
63194;BME280;49289;51.670;5.624;2022-07-29T00:12:58;101794.11;;;24.18;40.66
63194;BME280;49289;51.670;5.624;2022-07-29T00:14:46;101787.57;;;24.15;40.58
63194;BME280;49289;51.670;5.624;2022-07-29T00:16:35;101772.55;;;24.21;40.82
63194;BME280;49289;51.670;5.624;2022-07-29T00:18:22;101792.70;;;24.05;40.53
63194;BME280;49289;51.670;5.624;2022-07-29T00:20:11;101789.25;;;24.22;40.64
63194;BME280;49289;51.670;5.624;2022-07-29T00:21:59;101787.93;;;24.24;40.71
63194;BME280;49289;51.670;5.624;2022-07-29T00:23:48;101776.60;;;24.27;40.62
63194;BME280;49289;51.670;5.624;2022-07-29T00:25:36;101787.74;;;24.16;40.50
63194;BME280;49289;51.670;5.624;2022-07-29T00:27:24;101789.26;;;24.06;40.71
63194;BME280;49289;51.670;5.624;2022-07-29T00:29:11;101774.16;;;24.14;40.44
63194;BME280;49289;51.670;5.624;2022-07-29T00:30:58;101773.38;;;23.94;40.90
63194;BME280;49289;51.670;5.624;2022-07-29T00:32:45;101773.41;;;24.05;40.76
63194;BME280;49289;51.670;5.624;2022-07-29T00:34:32;101773.23;;;24.19;41.12
63194;BME280;49289;51.670;5.624;2022-07-29T00:36:19;101783.15;;;24.24;40.90
63194;BME280;49289;51.670;5.624;2022-07-29T00:38:06;101767.28;;;24.12;40.62
63194;BME280;49289;51.670;5.624;2022-07-29T00:39:53;101775.41;;;24.16;41.06
63194;BME280;49289;51.670;5.624;2022-07-29T00:41:40;101760.06;;;24.17;40.67
63194;BME280;49289;51.670;5.624;2022-07-29T00:43:27;101768.99;;;24.32;40.73
63194;BME280;49289;51.670;5.624;2022-07-29T00:45:16;101773.33;;;24.26;41.00
63194;BME280;49289;51.670;5.624;2022-07-29T00:47:03;101773.23;;;24.12;40.95
63194;BME280;49289;51.670;5.624;2022-07-29T00:48:50;101771.74;;;24.26;40.81
63194;BME280;49289;51.670;5.624;2022-07-29T00:50:37;101775.39;;;24.02;40.84
63194;BME280;49289;51.670;5.624;2022-07-29T00:52:24;101779.84;;;24.00;41.56
63194;BME280;49289;51.670;5.624;2022-07-29T00:54:11;101763.12;;;23.75;41.19
63194;BME280;49289;51.670;5.624;2022-07-29T00:55:59;101764.35;;;24.05;41.07
63194;BME280;49289;51.670;5.624;2022-07-29T00:57:47;101779.77;;;24.19;41.13
63194;BME280;49289;51.670;5.624;2022-07-29T00:59:35;101783.97;;;24.06;41.40
63194;BME280;49289;51.670;5.624;2022-07-29T01:01:22;101788.22;;;23.97;41.80
63194;BME280;49289;51.670;5.624;2022-07-29T01:03:09;101774.86;;;23.81;41.65
63194;BME280;49289;51.670;5.624;2022-07-29T01:04:56;101793.87;;;24.07;41.50
63194;BME280;49289;51.670;5.624;2022-07-29T01:06:43;101790.77;;;24.06;42.02
63194;BME280;49289;51.670;5.624;2022-07-29T01:08:30;101783.41;;;23.82;41.80
63194;BME280;49289;51.670;5.624;2022-07-29T01:10:03;101800.67;;;23.76;42.03
63194;BME280;49289;51.670;5.624;2022-07-29T01:11:50;101799.16;;;23.82;42.11
63194;BME280;49289;51.670;5.624;2022-07-29T01:13:37;101789.47;;;23.84;41.91
63194;BME280;49289;51.670;5.624;2022-07-29T01:15:25;101808.05;;;23.72;42.36
63194;BME280;49289;51.670;5.624;2022-07-29T01:17:16;101799.87;;;23.90;41.83
63194;BME280;49289;51.670;5.624;2022-07-29T01:19:06;101813.23;;;23.74;42.25
63194;BME280;49289;51.670;5.624;2022-07-29T01:20:58;101823.72;;;23.72;43.00
63194;BME280;49289;51.670;5.624;2022-07-29T01:22:57;101840.80;;;23.64;42.45
63194;BME280;49289;51.670;5.624;2022-07-29T01:24:46;101844.30;;;23.83;42.03
63194;BME280;49289;51.670;5.624;2022-07-29T01:26:52;101835.20;;;23.77;41.78
63194;BME280;49289;51.670;5.624;2022-07-29T01:30:55;101817.40;;;24.03;41.15
63194;BME280;49289;51.670;5.624;2022-07-29T01:32:44;101822.72;;;24.20;41.24
63194;BME280;49289;51.670;5.624;2022-07-29T01:34:34;101820.81;;;24.24;41.36
63194;BME280;49289;51.670;5.624;2022-07-29T01:36:21;101826.16;;;24.20;41.79
63194;BME280;49289;51.670;5.624;2022-07-29T01:38:08;101833.79;;;24.14;41.79
63194;BME280;49289;51.670;5.624;2022-07-29T01:39:56;101822.80;;;24.22;41.85
63194;BME280;49289;51.670;5.624;2022-07-29T01:41:45;101794.78;;;24.16;41.51
63194;BME280;49289;51.670;5.624;2022-07-29T01:43:32;101804.09;;;24.18;41.56
63194;BME280;49289;51.670;5.624;2022-07-29T01:45:20;101798.14;;;24.18;41.79
63194;BME280;49289;51.670;5.624;2022-07-29T01:47:11;101794.93;;;24.01;42.48
63194;BME280;49289;51.670;5.624;2022-07-29T01:48:54;101778.49;;;23.98;43.00
63194;BME280;49289;51.670;5.624;2022-07-29T01:50:44;101772.20;;;23.87;42.65
63194;BME280;49289;51.670;5.624;2022-07-29T01:52:33;101769.66;;;23.72;43.01
63194;BME280;49289;51.670;5.624;2022-07-29T01:54:20;101761.69;;;23.70;43.26
63194;BME280;49289;51.670;5.624;2022-07-29T01:56:06;101767.84;;;23.85;43.15
63194;BME280;49289;51.670;5.624;2022-07-29T01:57:57;101763.36;;;23.67;43.65
63194;BME280;49289;51.670;5.624;2022-07-29T01:59:43;101753.98;;;23.49;44.20
63194;BME280;49289;51.670;5.624;2022-07-29T02:01:31;101750.66;;;23.35;45.05
63194;BME280;49289;51.670;5.624;2022-07-29T02:03:19;101745.89;;;23.39;45.00
63194;BME280;49289;51.670;5.624;2022-07-29T02:05:07;101744.14;;;23.20;45.54
63194;BME280;49289;51.670;5.624;2022-07-29T02:06:56;101729.38;;;23.09;45.92
63194;BME280;49289;51.670;5.624;2022-07-29T02:08:43;101741.38;;;23.17;46.54
63194;BME280;49289;51.670;5.624;2022-07-29T02:10:31;101736.09;;;23.18;47.18
63194;BME280;49289;51.670;5.624;2022-07-29T02:12:19;101738.36;;;23.01;47.82
63194;BME280;49289;51.670;5.624;2022-07-29T02:14:07;101719.22;;;22.84;48.43
63194;BME280;49289;51.670;5.624;2022-07-29T02:15:55;101729.03;;;22.91;48.97
63194;BME280;49289;51.670;5.624;2022-07-29T02:17:45;101709.84;;;22.84;50.18
63194;BME280;49289;51.670;5.624;2022-07-29T02:19:31;101718.59;;;22.67;50.93
63194;BME280;49289;51.670;5.624;2022-07-29T02:21:19;101700.73;;;22.23;51.88
63194;BME280;49289;51.670;5.624;2022-07-29T02:23:05;101719.58;;;22.19;52.16
63194;BME280;49289;51.670;5.624;2022-07-29T02:24:53;101717.00;;;22.22;52.77
63194;BME280;49289;51.670;5.624;2022-07-29T02:26:41;101701.78;;;21.64;54.22
63194;BME280;49289;51.670;5.624;2022-07-29T02:28:29;101716.83;;;21.59;54.58
63194;BME280;49289;51.670;5.624;2022-07-29T02:30:20;101702.33;;;21.45;54.54
63194;BME280;49289;51.670;5.624;2022-07-29T02:32:07;101697.36;;;21.35;55.00
63194;BME280;49289;51.670;5.624;2022-07-29T02:33:54;101707.98;;;21.22;55.96
63194;BME280;49289;51.670;5.624;2022-07-29T02:35:41;101702.80;;;21.50;55.19
63194;BME280;49289;51.670;5.624;2022-07-29T02:37:28;101704.31;;;21.67;54.83
63194;BME280;49289;51.670;5.624;2022-07-29T02:39:16;101702.36;;;21.74;54.98
63194;BME280;49289;51.670;5.624;2022-07-29T02:41:05;101700.31;;;21.85;54.57
63194;BME280;49289;51.670;5.624;2022-07-29T02:42:52;101704.58;;;21.87;54.91
63194;BME280;49289;51.670;5.624;2022-07-29T02:44:39;101698.27;;;21.64;55.82
63194;BME280;49289;51.670;5.624;2022-07-29T02:46:27;101699.59;;;21.73;55.38
63194;BME280;49289;51.670;5.624;2022-07-29T02:48:14;101710.68;;;21.70;55.93
63194;BME280;49289;51.670;5.624;2022-07-29T02:50:04;101711.06;;;21.59;56.37
63194;BME280;49289;51.670;5.624;2022-07-29T02:51:54;101710.88;;;21.42;57.04
63194;BME280;49289;51.670;5.624;2022-07-29T02:53:40;101695.70;;;21.17;57.26
63194;BME280;49289;51.670;5.624;2022-07-29T02:55:30;101696.66;;;21.21;57.01
63194;BME280;49289;51.670;5.624;2022-07-29T02:57:19;101702.33;;;21.39;57.19
63194;BME280;49289;51.670;5.624;2022-07-29T02:59:06;101677.29;;;21.40;56.66
63194;BME280;49289;51.670;5.624;2022-07-29T03:00:54;101679.72;;;21.21;57.33
63194;BME280;49289;51.670;5.624;2022-07-29T03:02:42;101686.60;;;21.27;57.62
63194;BME280;49289;51.670;5.624;2022-07-29T03:04:30;101680.16;;;21.34;57.28
63194;BME280;49289;51.670;5.624;2022-07-29T03:06:19;101677.56;;;21.33;57.05
63194;BME280;49289;51.670;5.624;2022-07-29T03:08:06;101694.55;;;21.44;57.16
63194;BME280;49289;51.670;5.624;2022-07-29T03:09:53;101680.33;;;21.27;57.31
63194;BME280;49289;51.670;5.624;2022-07-29T03:11:40;101684.50;;;21.15;57.52
63194;BME280;49289;51.670;5.624;2022-07-29T03:13:27;101684.68;;;21.16;57.65
63194;BME280;49289;51.670;5.624;2022-07-29T03:15:15;101689.80;;;21.03;57.83
63194;BME280;49289;51.670;5.624;2022-07-29T03:17:03;101708.48;;;21.27;57.52
63194;BME280;49289;51.670;5.624;2022-07-29T03:18:50;101702.25;;;21.46;57.01
63194;BME280;49289;51.670;5.624;2022-07-29T03:20:37;101702.20;;;21.59;56.58
63194;BME280;49289;51.670;5.624;2022-07-29T03:22:24;101705.73;;;21.77;56.15
63194;BME280;49289;51.670;5.624;2022-07-29T03:24:11;101703.14;;;21.78;56.22
63194;BME280;49289;51.670;5.624;2022-07-29T03:25:59;101703.50;;;21.81;56.08
63194;BME280;49289;51.670;5.624;2022-07-29T03:27:48;101690.78;;;21.79;56.00
63194;BME280;49289;51.670;5.624;2022-07-29T03:29:36;101705.84;;;21.81;55.80
63194;BME280;49289;51.670;5.624;2022-07-29T03:31:24;101709.12;;;21.90;55.65
63194;BME280;49289;51.670;5.624;2022-07-29T03:33:12;101710.64;;;21.92;55.68
63194;BME280;49289;51.670;5.624;2022-07-29T03:35:00;101711.69;;;21.87;55.72
63194;BME280;49289;51.670;5.624;2022-07-29T03:36:48;101697.55;;;21.85;55.51
63194;BME280;49289;51.670;5.624;2022-07-29T03:38:36;101694.53;;;21.84;55.79
63194;BME280;49289;51.670;5.624;2022-07-29T03:40:24;101688.33;;;21.75;55.79
63194;BME280;49289;51.670;5.624;2022-07-29T03:42:12;101705.22;;;21.94;55.75
63194;BME280;49289;51.670;5.624;2022-07-29T03:43:59;101697.06;;;21.87;55.79
63194;BME280;49289;51.670;5.624;2022-07-29T03:45:48;101709.16;;;21.84;55.92
63194;BME280;49289;51.670;5.624;2022-07-29T03:47:37;101696.11;;;21.83;55.82
63194;BME280;49289;51.670;5.624;2022-07-29T03:49:24;101709.62;;;21.91;55.49
63194;BME280;49289;51.670;5.624;2022-07-29T03:51:12;101718.27;;;21.95;55.34
63194;BME280;49289;51.670;5.624;2022-07-29T03:53:00;101720.68;;;21.94;55.66
63194;BME280;49289;51.670;5.624;2022-07-29T03:54:48;101721.31;;;22.01;55.48
63194;BME280;49289;51.670;5.624;2022-07-29T03:56:37;101720.37;;;21.97;55.38
63194;BME280;49289;51.670;5.624;2022-07-29T03:58:23;101724.18;;;21.50;55.97
63194;BME280;49289;51.670;5.624;2022-07-29T04:00:12;101721.91;;;21.74;55.74
63194;BME280;49289;51.670;5.624;2022-07-29T04:02:00;101704.25;;;21.81;55.92
63194;BME280;49289;51.670;5.624;2022-07-29T04:03:48;101725.85;;;21.66;56.43
63194;BME280;49289;51.670;5.624;2022-07-29T04:05:36;101709.91;;;21.61;56.54
63194;BME280;49289;51.670;5.624;2022-07-29T04:07:24;101730.50;;;21.82;56.07
63194;BME280;49289;51.670;5.624;2022-07-29T04:09:12;101728.75;;;21.90;55.82
63194;BME280;49289;51.670;5.624;2022-07-29T04:11:01;101729.64;;;21.97;55.67
63194;BME280;49289;51.670;5.624;2022-07-29T04:12:49;101736.91;;;21.96;55.66
63194;BME280;49289;51.670;5.624;2022-07-29T04:14:36;101731.87;;;21.93;55.84
63194;BME280;49289;51.670;5.624;2022-07-29T04:16:24;101718.12;;;21.87;55.43
63194;BME280;49289;51.670;5.624;2022-07-29T04:18:12;101727.67;;;21.91;55.47
63194;BME280;49289;51.670;5.624;2022-07-29T04:20:00;101728.77;;;21.92;55.60
63194;BME280;49289;51.670;5.624;2022-07-29T04:21:50;101725.89;;;21.88;55.65
63194;BME280;49289;51.670;5.624;2022-07-29T04:23:36;101715.67;;;21.84;55.16
63194;BME280;49289;51.670;5.624;2022-07-29T04:25:23;101725.88;;;21.97;55.42
63194;BME280;49289;51.670;5.624;2022-07-29T04:27:10;101723.27;;;21.95;55.62
63194;BME280;49289;51.670;5.624;2022-07-29T04:28:57;101720.05;;;21.98;55.14
63194;BME280;49289;51.670;5.624;2022-07-29T04:30:44;101703.34;;;21.71;56.02
63194;BME280;49289;51.670;5.624;2022-07-29T04:32:31;101723.73;;;21.56;56.63
63194;BME280;49289;51.670;5.624;2022-07-29T04:34:18;101730.24;;;21.41;57.29
63194;BME280;49289;51.670;5.624;2022-07-29T04:36:05;101707.02;;;21.40;56.84
63194;BME280;49289;51.670;5.624;2022-07-29T04:37:52;101706.91;;;21.62;56.50
63194;BME280;49289;51.670;5.624;2022-07-29T04:39:39;101703.15;;;21.68;56.50
63194;BME280;49289;51.670;5.624;2022-07-29T04:41:26;101722.44;;;21.84;56.27
63194;BME280;49289;51.670;5.624;2022-07-29T04:43:13;101713.34;;;21.62;56.69
63194;BME280;49289;51.670;5.624;2022-07-29T04:45:01;101732.39;;;21.68;56.57
63194;BME280;49289;51.670;5.624;2022-07-29T04:46:49;101732.53;;;21.76;56.40
63194;BME280;49289;51.670;5.624;2022-07-29T04:48:38;101731.66;;;21.56;56.51
63194;BME280;49289;51.670;5.624;2022-07-29T04:50:25;101717.77;;;21.24;57.13
63194;BME280;49289;51.670;5.624;2022-07-29T04:52:12;101710.39;;;21.50;56.60
63194;BME280;49289;51.670;5.624;2022-07-29T04:53:59;101726.23;;;21.71;56.44
63194;BME280;49289;51.670;5.624;2022-07-29T04:55:46;101733.58;;;21.80;56.18
63194;BME280;49289;51.670;5.624;2022-07-29T04:57:33;101736.73;;;21.68;56.59
63194;BME280;49289;51.670;5.624;2022-07-29T04:59:20;101736.67;;;21.81;56.19
63194;BME280;49289;51.670;5.624;2022-07-29T05:01:09;101725.92;;;21.75;56.01
63194;BME280;49289;51.670;5.624;2022-07-29T05:02:57;101753.32;;;21.59;56.74
63194;BME280;49289;51.670;5.624;2022-07-29T05:04:45;101764.58;;;21.56;56.93
63194;BME280;49289;51.670;5.624;2022-07-29T05:06:33;101773.39;;;21.32;57.36
63194;BME280;49289;51.670;5.624;2022-07-29T05:08:21;101758.03;;;21.39;57.14
63194;BME280;49289;51.670;5.624;2022-07-29T05:10:10;101750.48;;;21.63;56.44
63194;BME280;49289;51.670;5.624;2022-07-29T05:11:57;101745.33;;;21.67;56.41
63194;BME280;49289;51.670;5.624;2022-07-29T05:13:44;101747.63;;;21.48;56.63
63194;BME280;49289;51.670;5.624;2022-07-29T05:15:31;101745.41;;;21.61;56.45
63194;BME280;49289;51.670;5.624;2022-07-29T05:17:19;101761.44;;;21.65;56.64
63194;BME280;49289;51.670;5.624;2022-07-29T05:19:07;101749.09;;;21.39;56.78
63194;BME280;49289;51.670;5.624;2022-07-29T05:20:55;101752.69;;;21.44;56.78
63194;BME280;49289;51.670;5.624;2022-07-29T05:22:43;101769.73;;;21.46;56.97
63194;BME280;49289;51.670;5.624;2022-07-29T05:24:31;101769.06;;;21.68;56.28
63194;BME280;49289;51.670;5.624;2022-07-29T05:26:20;101761.84;;;21.74;56.07
63194;BME280;49289;51.670;5.624;2022-07-29T05:28:08;101768.91;;;21.55;56.63
63194;BME280;49289;51.670;5.624;2022-07-29T05:29:55;101760.08;;;21.58;56.06
63194;BME280;49289;51.670;5.624;2022-07-29T05:31:42;101778.73;;;21.65;56.46
63194;BME280;49289;51.670;5.624;2022-07-29T05:33:29;101769.78;;;21.73;56.25
63194;BME280;49289;51.670;5.624;2022-07-29T05:35:17;101754.48;;;21.72;56.31
63194;BME280;49289;51.670;5.624;2022-07-29T05:37:05;101776.73;;;21.52;56.79
63194;BME280;49289;51.670;5.624;2022-07-29T05:38:53;101753.34;;;21.61;56.38
63194;BME280;49289;51.670;5.624;2022-07-29T05:40:41;101766.62;;;21.75;56.41
63194;BME280;49289;51.670;5.624;2022-07-29T05:42:29;101769.48;;;21.24;56.94
63194;BME280;49289;51.670;5.624;2022-07-29T05:44:16;101751.76;;;21.06;57.45
63194;BME280;49289;51.670;5.624;2022-07-29T05:46:03;101751.73;;;21.36;56.82
63194;BME280;49289;51.670;5.624;2022-07-29T05:47:50;101772.98;;;21.54;56.51
63194;BME280;49289;51.670;5.624;2022-07-29T05:49:37;101777.00;;;21.68;56.07
63194;BME280;49289;51.670;5.624;2022-07-29T05:51:24;101786.00;;;21.75;55.75
63194;BME280;49289;51.670;5.624;2022-07-29T05:53:11;101784.56;;;21.73;55.89
63194;BME280;49289;51.670;5.624;2022-07-29T05:54:58;101766.45;;;21.75;55.62
63194;BME280;49289;51.670;5.624;2022-07-29T05:56:48;101775.93;;;21.85;54.88
63194;BME280;49289;51.670;5.624;2022-07-29T05:58:35;101754.10;;;21.83;54.98
63194;BME280;49289;51.670;5.624;2022-07-29T06:00:22;101757.70;;;21.77;55.33
63194;BME280;49289;51.670;5.624;2022-07-29T06:02:11;101775.02;;;21.96;55.54
63194;BME280;49289;51.670;5.624;2022-07-29T06:03:59;101779.58;;;21.91;54.45
63194;BME280;49289;51.670;5.624;2022-07-29T06:05:47;101784.24;;;21.60;55.10
63194;BME280;49289;51.670;5.624;2022-07-29T06:07:35;101784.74;;;21.43;55.05
63194;BME280;49289;51.670;5.624;2022-07-29T06:09:22;101784.95;;;21.56;55.45
63194;BME280;49289;51.670;5.624;2022-07-29T06:11:09;101782.73;;;21.60;55.55
63194;BME280;49289;51.670;5.624;2022-07-29T06:12:56;101772.83;;;21.47;54.99
63194;BME280;49289;51.670;5.624;2022-07-29T06:14:44;101788.92;;;21.75;54.72
63194;BME280;49289;51.670;5.624;2022-07-29T06:16:31;101765.73;;;21.84;53.94
63194;BME280;49289;51.670;5.624;2022-07-29T06:18:18;101778.44;;;21.95;53.82
63194;BME280;49289;51.670;5.624;2022-07-29T06:20:05;101763.62;;;21.82;54.33
63194;BME280;49289;51.670;5.624;2022-07-29T06:21:54;101776.10;;;21.96;54.04
63194;BME280;49289;51.670;5.624;2022-07-29T06:23:41;101764.70;;;21.91;54.38
63194;BME280;49289;51.670;5.624;2022-07-29T06:25:28;101777.56;;;21.91;54.43
63194;BME280;49289;51.670;5.624;2022-07-29T06:27:15;101767.27;;;21.88;54.33
63194;BME280;49289;51.670;5.624;2022-07-29T06:29:03;101781.19;;;21.83;53.83
63194;BME280;49289;51.670;5.624;2022-07-29T06:30:51;101786.64;;;21.97;54.00
63194;BME280;49289;51.670;5.624;2022-07-29T06:32:39;101781.17;;;22.02;53.44
63194;BME280;49289;51.670;5.624;2022-07-29T06:34:27;101779.69;;;21.94;53.81
63194;BME280;49289;51.670;5.624;2022-07-29T06:36:16;101767.17;;;21.72;55.37
63194;BME280;49289;51.670;5.624;2022-07-29T06:38:03;101777.11;;;22.08;54.18
63194;BME280;49289;51.670;5.624;2022-07-29T06:39:50;101766.56;;;22.08;53.37
63194;BME280;49289;51.670;5.624;2022-07-29T06:41:37;101765.12;;;22.23;53.24
63194;BME280;49289;51.670;5.624;2022-07-29T06:43:24;101764.22;;;22.26;53.85
63194;BME280;49289;51.670;5.624;2022-07-29T06:45:13;101777.08;;;22.23;53.41
63194;BME280;49289;51.670;5.624;2022-07-29T06:47:01;101759.84;;;22.35;53.43
63194;BME280;49289;51.670;5.624;2022-07-29T06:48:49;101780.90;;;21.99;54.80
63194;BME280;49289;51.670;5.624;2022-07-29T06:50:37;101785.11;;;22.36;53.34
63194;BME280;49289;51.670;5.624;2022-07-29T06:52:25;101782.47;;;22.09;53.87
63194;BME280;49289;51.670;5.624;2022-07-29T06:54:13;101784.86;;;22.36;53.57
63194;BME280;49289;51.670;5.624;2022-07-29T06:56:02;101771.31;;;22.45;53.09
63194;BME280;49289;51.670;5.624;2022-07-29T06:57:49;101783.96;;;22.71;52.88
63194;BME280;49289;51.670;5.624;2022-07-29T06:59:37;101784.95;;;22.68;53.66
63194;BME280;49289;51.670;5.624;2022-07-29T07:01:26;101782.17;;;22.66;52.64
63194;BME280;49289;51.670;5.624;2022-07-29T07:03:13;101767.81;;;22.82;52.47
63194;BME280;49289;51.670;5.624;2022-07-29T07:05:00;101785.77;;;22.81;53.41
63194;BME280;49289;51.670;5.624;2022-07-29T07:06:47;101788.16;;;22.74;52.17
63194;BME280;49289;51.670;5.624;2022-07-29T07:08:21;101775.21;;;22.53;52.24
63194;BME280;49289;51.670;5.624;2022-07-29T07:09:52;101775.41;;;22.68;52.03
63194;BME280;49289;51.670;5.624;2022-07-29T07:11:39;101786.78;;;22.58;52.11
63194;BME280;49289;51.670;5.624;2022-07-29T07:13:27;101787.74;;;22.74;52.09
63194;BME280;49289;51.670;5.624;2022-07-29T07:15:16;101786.86;;;22.66;51.99
63194;BME280;49289;51.670;5.624;2022-07-29T07:17:03;101787.70;;;22.66;51.50
63194;BME280;49289;51.670;5.624;2022-07-29T07:18:50;101784.75;;;22.78;51.61
63194;BME280;49289;51.670;5.624;2022-07-29T07:20:37;101785.96;;;22.91;51.56
63194;BME280;49289;51.670;5.624;2022-07-29T07:22:25;101772.81;;;22.67;51.90
63194;BME280;49289;51.670;5.624;2022-07-29T07:24:12;101770.06;;;22.25;52.50
63194;BME280;49289;51.670;5.624;2022-07-29T07:26:00;101787.96;;;22.68;52.32
63194;BME280;49289;51.670;5.624;2022-07-29T07:27:48;101787.30;;;22.70;51.94
63194;BME280;49289;51.670;5.624;2022-07-29T07:29:36;101787.27;;;22.79;52.60
63194;BME280;49289;51.670;5.624;2022-07-29T07:31:24;101786.52;;;22.80;51.91
63194;BME280;49289;51.670;5.624;2022-07-29T07:33:13;101787.08;;;22.76;52.19
63194;BME280;49289;51.670;5.624;2022-07-29T07:35:01;101781.49;;;22.84;51.57
63194;BME280;49289;51.670;5.624;2022-07-29T07:36:48;101782.30;;;22.96;51.81
63194;BME280;49289;51.670;5.624;2022-07-29T07:38:36;101785.97;;;22.70;52.16
63194;BME280;49289;51.670;5.624;2022-07-29T07:40:24;101783.83;;;22.79;51.71
63194;BME280;49289;51.670;5.624;2022-07-29T07:42:12;101793.78;;;22.76;51.52
63194;BME280;49289;51.670;5.624;2022-07-29T07:44:01;101790.65;;;22.91;52.09
63194;BME280;49289;51.670;5.624;2022-07-29T07:45:50;101798.38;;;23.11;51.93
63194;BME280;49289;51.670;5.624;2022-07-29T07:47:38;101798.53;;;23.08;51.53
63194;BME280;49289;51.670;5.624;2022-07-29T07:49:26;101796.30;;;23.13;50.99
63194;BME280;49289;51.670;5.624;2022-07-29T07:51:14;101802.50;;;23.15;51.16
63194;BME280;49289;51.670;5.624;2022-07-29T07:53:02;101800.73;;;23.29;50.44
63194;BME280;49289;51.670;5.624;2022-07-29T07:54:50;101799.09;;;23.41;50.38
63194;BME280;49289;51.670;5.624;2022-07-29T07:56:38;101799.98;;;23.54;50.53
63194;BME280;49289;51.670;5.624;2022-07-29T07:58:25;101790.09;;;23.51;50.70
63194;BME280;49289;51.670;5.624;2022-07-29T08:00:13;101796.42;;;23.57;50.15
63194;BME280;49289;51.670;5.624;2022-07-29T08:02:01;101778.86;;;23.49;50.38
63194;BME280;49289;51.670;5.624;2022-07-29T08:03:49;101795.97;;;23.67;50.81
63194;BME280;49289;51.670;5.624;2022-07-29T08:05:37;101802.08;;;23.53;51.27
63194;BME280;49289;51.670;5.624;2022-07-29T08:07:25;101807.15;;;23.58;50.60
63194;BME280;49289;51.670;5.624;2022-07-29T08:09:12;101791.12;;;23.18;51.16
63194;BME280;49289;51.670;5.624;2022-07-29T08:10:59;101795.89;;;22.66;52.87
63194;BME280;49289;51.670;5.624;2022-07-29T08:12:46;101808.53;;;22.80;52.74
63194;BME280;49289;51.670;5.624;2022-07-29T08:14:33;101796.89;;;22.64;53.03
63194;BME280;49289;51.670;5.624;2022-07-29T08:16:20;101810.33;;;22.74;52.53
63194;BME280;49289;51.670;5.624;2022-07-29T08:18:07;101804.59;;;22.80;52.61
63194;BME280;49289;51.670;5.624;2022-07-29T08:19:54;101804.28;;;22.88;52.60
63194;BME280;49289;51.670;5.624;2022-07-29T08:21:41;101805.31;;;22.50;53.15
63194;BME280;49289;51.670;5.624;2022-07-29T08:23:28;101802.67;;;22.66;52.48
63194;BME280;49289;51.670;5.624;2022-07-29T08:25:15;101818.32;;;23.29;51.63
63194;BME280;49289;51.670;5.624;2022-07-29T08:27:03;101800.67;;;22.87;52.11
63194;BME280;49289;51.670;5.624;2022-07-29T08:28:51;101821.40;;;23.24;51.73
63194;BME280;49289;51.670;5.624;2022-07-29T08:30:39;101820.66;;;23.47;50.65
63194;BME280;49289;51.670;5.624;2022-07-29T08:32:27;101824.28;;;23.18;50.03
63194;BME280;49289;51.670;5.624;2022-07-29T08:34:15;101809.95;;;23.02;50.44
63194;BME280;49289;51.670;5.624;2022-07-29T08:36:04;101807.48;;;22.92;50.61
63194;BME280;49289;51.670;5.624;2022-07-29T08:37:52;101824.27;;;23.14;52.91
63194;BME280;49289;51.670;5.624;2022-07-29T08:39:40;101815.30;;;23.24;51.42
63194;BME280;49289;51.670;5.624;2022-07-29T08:41:27;101804.03;;;23.79;49.84
63194;BME280;49289;51.670;5.624;2022-07-29T08:43:17;101812.66;;;24.10;49.79
63194;BME280;49289;51.670;5.624;2022-07-29T08:45:04;101812.61;;;24.39;49.88
63194;BME280;49289;51.670;5.624;2022-07-29T08:46:51;101810.02;;;24.66;49.12
63194;BME280;49289;51.670;5.624;2022-07-29T08:48:38;101803.97;;;24.66;47.35
63194;BME280;49289;51.670;5.624;2022-07-29T08:50:25;101791.66;;;24.92;47.24
63194;BME280;49289;51.670;5.624;2022-07-29T08:52:12;101786.78;;;25.09;45.29
63194;BME280;49289;51.670;5.624;2022-07-29T08:53:59;101792.48;;;24.52;48.42
63194;BME280;49289;51.670;5.624;2022-07-29T08:55:48;101798.19;;;24.65;47.09
63194;BME280;49289;51.670;5.624;2022-07-29T08:57:35;101799.98;;;24.22;47.48
63194;BME280;49289;51.670;5.624;2022-07-29T08:59:24;101800.46;;;24.48;47.86
63194;BME280;49289;51.670;5.624;2022-07-29T09:01:11;101798.52;;;24.99;47.41
63194;BME280;49289;51.670;5.624;2022-07-29T09:03:00;101780.45;;;24.71;46.99
63194;BME280;49289;51.670;5.624;2022-07-29T09:04:48;101797.11;;;24.46;48.46
63194;BME280;49289;51.670;5.624;2022-07-29T09:06:37;101795.68;;;25.09;49.53
63194;BME280;49289;51.670;5.624;2022-07-29T09:08:22;101799.24;;;25.19;48.62
63194;BME280;49289;51.670;5.624;2022-07-29T09:10:12;101785.94;;;25.50;47.91
63194;BME280;49289;51.670;5.624;2022-07-29T09:11:59;101796.51;;;25.34;45.59
63194;BME280;49289;51.670;5.624;2022-07-29T09:13:46;101784.52;;;25.06;45.56
63194;BME280;49289;51.670;5.624;2022-07-29T09:15:33;101796.59;;;24.53;47.00
63194;BME280;49289;51.670;5.624;2022-07-29T09:17:20;101794.52;;;24.82;47.48
63194;BME280;49289;51.670;5.624;2022-07-29T09:19:07;101793.33;;;24.94;46.73
63194;BME280;49289;51.670;5.624;2022-07-29T09:20:56;101792.34;;;25.59;45.79
63194;BME280;49289;51.670;5.624;2022-07-29T09:22:44;101770.42;;;25.90;45.51
63194;BME280;49289;51.670;5.624;2022-07-29T09:24:35;101783.48;;;25.98;43.96